Nearby METAR Reports

 

EGPF - Glasgow Airport, United Kingdom
Distance from station: NW 19km
Updated: 11/12/2017 12:50
Clear
Clear
 Wind from varies
Wind: varies 2 km/h
Temperature: -1°C
Dew Point: -1°C
Humidity: 100%
Barometer: 992 hPa
Clouds: Clear
Visibility: 7 km
2017/12/11 12:50 EGPF 111250Z AUTO VRB01KT 7000 NCD M01/M01 Q0992
EGPK - Prestwick(Civ/Na, United Kingdom
Distance from station: SW 34km
Updated: 11/12/2017 12:50
Few Clouds
Few Clouds
 Wind from SE
Wind: SE 4 km/h
Temperature: 4°C
Dew Point: 0°C
Humidity: 75%
Barometer: 992 hPa
Clouds: Few Clouds
Visibility: 10 km
Cloud details: Few Clouds 457 m
2017/12/11 12:50 EGPK 111250Z 14002KT 9999 FEW015 04/M00 Q0992
EGPH - Edinburgh Airpor, United Kingdom
Distance from station: ENE 59km
Updated: 11/12/2017 12:50
Mostly cloudy
Mostly cloudy
 Wind from WSW
Wind: WSW 4 km/h
Temperature: 0°C
Dew Point: -2°C
Humidity: 87%
Barometer: 991 hPa
Clouds: Mostly cloudy
Visibility: 10 km
Cloud details: Mostly cloudy 1402 m
2017/12/11 12:50 EGPH 111250Z 25002KT 9999 BKN046 00/M02 Q0991